Time;durP1;ratioP1;P1;durP2;ratioP2;P2;SDS_P1;SDS_P2;PMS_P1;PMS_P2;Temp;Humidity;BMP_temperature;BMP_pressure;BME280_temperature;BME280_humidity;BME280_pressure;Samples;Min_cycle;Max_cycle;Signal;HPM_P1;HPM_P2
2021/08/08 00:01:49;;;;;;;1.00;1.00;;;18.60;99.90;;;;;;5013532;28;20413;-76
2021/08/08 00:04:16;;;;;;;1.05;1.02;;;18.50;99.90;;;;;;5012248;28;21757;-78
2021/08/08 00:06:42;;;;;;;1.13;1.13;;;18.50;99.90;;;;;;5009643;28;20389;-77
2021/08/08 00:09:08;;;;;;;1.20;1.10;;;18.50;99.90;;;;;;5022208;28;20432;-78
2021/08/08 00:11:33;;;;;;;1.20;1.10;;;18.40;99.90;;;;;;4994779;28;20410;-78
2021/08/08 00:14:00;;;;;;;1.10;1.10;;;18.50;99.90;;;;;;5008075;28;20791;-76
2021/08/08 00:16:28;;;;;;;1.00;1.00;;;18.40;99.90;;;;;;5013098;28;20385;-77
2021/08/08 00:18:54;;;;;;;1.10;1.10;;;18.40;99.90;;;;;;5029248;28;20385;-77
2021/08/08 00:21:19;;;;;;;1.13;1.13;;;18.40;99.90;;;;;;5008147;28;20384;-77
2021/08/08 00:23:45;;;;;;;1.10;1.10;;;18.40;99.90;;;;;;5038037;28;20397;-77
2021/08/08 00:26:11;;;;;;;0.90;0.90;;;18.30;99.90;;;;;;5012203;28;20784;-77
2021/08/08 00:28:36;;;;;;;1.70;1.17;;;18.30;99.90;;;;;;5028185;28;20404;-79
2021/08/08 00:31:02;;;;;;;1.00;1.00;;;18.20;99.90;;;;;;5010565;28;20468;-77
2021/08/08 00:33:29;;;;;;;1.20;1.13;;;18.20;99.90;;;;;;5020846;28;20443;-76
2021/08/08 00:35:55;;;;;;;1.30;1.20;;;18.20;99.90;;;;;;5010121;28;20905;-76
2021/08/08 00:38:24;;;;;;;1.30;1.20;;;18.20;99.90;;;;;;5037137;28;20476;-75
2021/08/08 00:40:50;;;;;;;1.33;1.23;;;18.20;99.90;;;;;;4999807;28;20774;-76
2021/08/08 00:43:16;;;;;;;1.20;1.10;;;18.10;99.90;;;;;;5046747;28;20407;-75
2021/08/08 00:45:45;;;;;;;1.10;1.10;;;18.10;99.90;;;;;;4991664;28;20419;-76
2021/08/08 00:48:13;;;;;;;1.08;1.08;;;18.10;99.90;;;;;;4998894;28;20428;-76
2021/08/08 00:50:40;;;;;;;1.13;1.13;;;18.10;99.90;;;;;;5011949;28;20397;-76
2021/08/08 00:53:09;;;;;;;1.13;1.13;;;18.00;99.90;;;;;;5027954;28;20393;-77
2021/08/08 00:55:38;;;;;;;1.13;1.13;;;18.00;99.90;;;;;;5012575;28;20397;-77
2021/08/08 00:58:03;;;;;;;1.10;1.10;;;18.00;99.90;;;;;;5011810;28;20951;-76
2021/08/08 01:00:32;;;;;;;1.52;1.33;;;17.90;99.90;;;;;;5011451;28;20401;-76
2021/08/08 01:03:01;;;;;;;1.10;1.10;;;17.90;99.90;;;;;;5028931;28;20498;-77
2021/08/08 01:05:38;;;;;;;1.40;1.33;;;17.90;99.90;;;;;;5012964;28;20394;-76
2021/08/08 01:08:05;;;;;;;1.43;1.33;;;17.90;99.90;;;;;;5011751;28;20941;-76
2021/08/08 01:10:34;;;;;;;1.10;1.10;;;17.90;99.90;;;;;;5029207;28;20466;-76
2021/08/08 01:13:01;;;;;;;1.20;1.15;;;17.90;99.90;;;;;;5005615;28;20408;-77
2021/08/08 01:15:27;;;;;;;0.90;0.90;;;17.90;99.90;;;;;;5009065;28;21855;-77
2021/08/08 01:17:53;;;;;;;1.00;1.00;;;17.90;99.90;;;;;;5019942;28;20902;-76
2021/08/08 01:20:19;;;;;;;1.10;1.10;;;17.90;99.90;;;;;;4999567;28;20392;-76
2021/08/08 01:22:54;;;;;;;0.95;0.95;;;17.90;99.90;;;;;;5011285;28;20431;-76
2021/08/08 01:25:22;;;;;;;1.10;1.10;;;17.90;99.90;;;;;;5015447;28;20545;-76
2021/08/08 01:27:48;;;;;;;1.00;1.00;;;17.80;99.90;;;;;;5012935;28;20416;-76
2021/08/08 01:30:14;;;;;;;0.80;0.80;;;17.80;99.90;;;;;;5019030;28;20401;-77
2021/08/08 01:32:43;;;;;;;1.17;1.08;;;17.70;99.90;;;;;;5030651;28;20484;-76
2021/08/08 01:35:09;;;;;;;1.20;1.00;;;17.70;99.90;;;;;;5014632;28;20928;-76
2021/08/08 01:37:35;;;;;;;1.10;1.00;;;17.60;99.90;;;;;;5012272;28;20403;-77
2021/08/08 01:40:15;;;;;;;0.93;0.93;;;17.70;99.90;;;;;;4997545;28;20443;-77
2021/08/08 01:42:41;;;;;;;1.20;1.10;;;17.60;99.90;;;;;;5017363;28;20447;-77
2021/08/08 01:45:07;;;;;;;1.13;1.13;;;17.60;99.90;;;;;;5014328;28;20393;-76
2021/08/08 01:47:38;;;;;;;1.17;1.00;;;17.60;99.90;;;;;;5014735;28;20405;-76
2021/08/08 01:50:13;;;;;;;2.00;1.15;;;17.60;99.90;;;;;;5017395;28;20396;-78
2021/08/08 01:52:42;;;;;;;1.02;1.02;;;17.50;99.90;;;;;;5015002;28;20389;-77
2021/08/08 01:55:10;;;;;;;1.00;1.00;;;17.50;99.90;;;;;;5029714;28;20395;-77
2021/08/08 01:57:46;;;;;;;1.10;1.02;;;17.50;99.90;;;;;;5010049;28;20408;-76
2021/08/08 02:00:19;;;;;;;0.90;0.90;;;17.50;99.90;;;;;;5030684;28;20393;-76
2021/08/08 02:02:57;;;;;;;1.05;1.00;;;17.50;99.90;;;;;;5009371;28;20758;-78
2021/08/08 02:05:43;;;;;;;2.40;0.90;;;17.50;99.90;;;;;;5009479;28;20929;-77
2021/08/08 02:08:11;;;;;;;1.05;1.02;;;17.50;99.90;;;;;;4999179;28;20448;-77
2021/08/08 02:10:46;;;;;;;0.90;0.90;;;17.40;99.90;;;;;;5012403;28;20394;-76
2021/08/08 02:13:14;;;;;;;1.10;1.10;;;17.40;99.90;;;;;;5012106;28;20387;-76
2021/08/08 02:15:41;;;;;;;1.00;1.00;;;17.30;99.90;;;;;;5013631;28;20421;-76
2021/08/08 02:18:07;;;;;;;0.85;0.85;;;17.30;99.90;;;;;;5029683;28;20436;-76
2021/08/08 02:20:37;;;;;;;1.07;1.07;;;17.30;99.90;;;;;;5015365;28;20392;-76
2021/08/08 02:23:05;;;;;;;1.07;1.00;;;17.30;99.90;;;;;;4998749;28;20401;-77
2021/08/08 02:25:34;;;;;;;1.10;1.10;;;17.30;99.90;;;;;;5010275;28;20466;-76
2021/08/08 02:28:07;;;;;;;0.80;0.80;;;17.30;99.90;;;;;;5014514;28;20443;-76
2021/08/08 02:30:36;;;;;;;1.00;1.00;;;17.30;99.90;;;;;;5011253;28;20919;-78
2021/08/08 02:33:03;;;;;;;1.00;1.00;;;17.30;99.90;;;;;;5004270;28;20419;-78
2021/08/08 02:35:32;;;;;;;0.98;0.98;;;17.20;99.90;;;;;;5030459;28;20409;-77
2021/08/08 02:37:57;;;;;;;0.80;0.80;;;17.20;99.90;;;;;;5029903;28;20386;-76
2021/08/08 02:40:24;;;;;;;1.00;0.95;;;17.20;99.90;;;;;;5029843;28;20970;-76
2021/08/08 02:42:50;;;;;;;0.90;0.90;;;17.10;99.90;;;;;;5026455;28;20461;-76
2021/08/08 02:45:15;;;;;;;1.00;1.00;;;17.10;99.90;;;;;;5025626;28;20395;-76
2021/08/08 02:47:42;;;;;;;1.20;1.13;;;17.10;99.90;;;;;;5009724;28;20405;-77
2021/08/08 02:50:10;;;;;;;1.20;1.20;;;17.00;99.90;;;;;;4995957;28;20383;-76
2021/08/08 02:52:40;;;;;;;1.10;1.10;;;17.00;99.90;;;;;;5029814;28;20462;-77
2021/08/08 02:55:08;;;;;;;1.10;1.00;;;17.00;99.90;;;;;;5011173;28;20391;-77
2021/08/08 02:57:34;;;;;;;0.90;0.90;;;16.90;99.90;;;;;;4994187;28;21306;-76
2021/08/08 03:00:00;;;;;;;1.20;1.08;;;16.90;99.90;;;;;;5013009;28;20417;-77
2021/08/08 03:02:26;;;;;;;1.10;1.10;;;16.90;99.90;;;;;;5028820;28;20397;-77
2021/08/08 03:04:52;;;;;;;1.35;1.10;;;16.80;99.90;;;;;;5012667;28;20432;-77
2021/08/08 03:07:18;;;;;;;1.00;1.00;;;16.80;99.90;;;;;;5025974;28;21008;-76
2021/08/08 03:09:44;;;;;;;1.20;1.20;;;16.80;99.90;;;;;;5004753;28;20397;-76
2021/08/08 03:12:10;;;;;;;1.20;1.10;;;16.80;99.90;;;;;;5036921;28;20419;-76
2021/08/08 03:14:40;;;;;;;1.00;1.00;;;16.70;99.90;;;;;;5030766;28;20769;-78
2021/08/08 03:17:06;;;;;;;1.08;1.08;;;16.70;99.90;;;;;;5009017;28;20411;-77
2021/08/08 03:19:32;;;;;;;1.00;1.00;;;16.70;99.90;;;;;;5013448;28;20432;-78
2021/08/08 03:21:58;;;;;;;1.53;1.20;;;16.70;99.90;;;;;;4998146;28;20421;-76
2021/08/08 03:24:24;;;;;;;1.20;0.93;;;16.70;99.90;;;;;;5010935;28;20911;-76
2021/08/08 03:26:51;;;;;;;1.00;1.00;;;16.70;99.90;;;;;;5002449;28;20391;-77
2021/08/08 03:29:17;;;;;;;1.30;1.27;;;16.60;99.90;;;;;;5020486;28;20393;-78
2021/08/08 03:31:45;;;;;;;1.60;1.33;;;16.60;99.90;;;;;;5012719;28;20448;-77
2021/08/08 03:34:12;;;;;;;0.90;0.90;;;16.60;99.90;;;;;;5012843;28;20385;-77
2021/08/08 03:36:38;;;;;;;1.80;1.27;;;16.60;99.90;;;;;;4996618;28;20911;-76
2021/08/08 03:39:04;;;;;;;1.10;1.10;;;16.60;99.90;;;;;;5009036;28;20395;-77
2021/08/08 03:41:30;;;;;;;1.20;1.10;;;16.60;99.90;;;;;;5028395;28;20432;-76
2021/08/08 03:43:56;;;;;;;1.30;1.20;;;16.60;99.90;;;;;;5009278;28;20417;-78
2021/08/08 03:46:21;;;;;;;1.10;1.10;;;16.60;99.90;;;;;;5011268;28;20447;-76
2021/08/08 03:48:47;;;;;;;1.02;1.02;;;16.60;99.90;;;;;;5013298;28;20905;-76
2021/08/08 03:51:13;;;;;;;1.00;1.00;;;16.60;99.90;;;;;;4996043;28;20475;-78
2021/08/08 03:53:39;;;;;;;1.00;1.00;;;16.60;99.90;;;;;;5012398;28;20394;-77
2021/08/08 03:56:05;;;;;;;1.92;1.00;;;16.60;99.90;;;;;;5012464;28;20381;-77
2021/08/08 03:58:30;;;;;;;1.20;1.00;;;16.60;99.90;;;;;;5005455;28;20445;-76
2021/08/08 04:01:00;;;;;;;0.90;0.90;;;16.60;99.90;;;;;;5006462;28;20398;-77
2021/08/08 04:03:26;;;;;;;1.65;1.00;;;16.60;99.90;;;;;;5045062;28;21090;-77
2021/08/08 04:05:51;;;;;;;1.10;1.10;;;16.70;99.90;;;;;;4995206;28;20421;-76
2021/08/08 04:08:17;;;;;;;1.35;1.25;;;16.60;99.90;;;;;;5012817;28;20382;-78
2021/08/08 04:10:43;;;;;;;2.13;1.10;;;16.60;99.90;;;;;;4996569;28;20401;-76
2021/08/08 04:13:08;;;;;;;0.95;0.95;;;16.60;99.90;;;;;;5036484;28;20397;-78
2021/08/08 04:15:34;;;;;;;0.80;0.80;;;16.60;99.90;;;;;;5009004;28;20423;-77
2021/08/08 04:17:59;;;;;;;1.20;1.10;;;16.60;99.90;;;;;;4995297;28;20400;-77
2021/08/08 04:20:25;;;;;;;1.00;1.00;;;16.70;99.90;;;;;;5011255;28;20390;-76
2021/08/08 04:22:52;;;;;;;0.80;0.80;;;16.70;99.90;;;;;;5012501;28;20398;-76
2021/08/08 04:25:18;;;;;;;1.02;1.02;;;16.80;99.90;;;;;;5010318;28;20424;-76
2021/08/08 04:27:43;;;;;;;1.30;1.20;;;16.80;99.90;;;;;;5000588;28;20406;-77
2021/08/08 04:30:10;;;;;;;0.80;0.80;;;16.80;99.90;;;;;;4995435;28;20762;-75
2021/08/08 04:32:36;;;;;;;1.03;1.03;;;16.80;99.90;;;;;;5026442;28;20428;-76
2021/08/08 04:35:02;;;;;;;1.25;1.15;;;16.90;99.90;;;;;;5011102;28;20873;-76
2021/08/08 04:37:28;;;;;;;0.90;0.90;;;16.90;99.90;;;;;;5008066;28;20487;-77
2021/08/08 04:39:54;;;;;;;1.00;1.00;;;17.00;99.90;;;;;;5004904;28;20920;-76
2021/08/08 04:42:20;;;;;;;1.00;1.00;;;17.00;99.90;;;;;;5015917;28;20409;-76
2021/08/08 04:44:46;;;;;;;1.17;1.10;;;17.10;99.90;;;;;;5026882;28;20440;-77
2021/08/08 04:47:11;;;;;;;1.10;1.00;;;17.10;99.90;;;;;;5018521;28;20429;-77
2021/08/08 04:49:37;;;;;;;1.00;1.00;;;17.10;99.90;;;;;;5011943;28;20394;-76
2021/08/08 04:52:03;;;;;;;1.00;1.00;;;17.10;99.90;;;;;;5008086;28;20446;-77
2021/08/08 04:54:30;;;;;;;1.13;1.03;;;17.10;99.90;;;;;;5029823;28;20427;-77
2021/08/08 04:56:56;;;;;;;1.10;1.10;;;17.10;99.90;;;;;;5010637;28;20401;-77
2021/08/08 04:59:22;;;;;;;1.20;1.10;;;17.20;99.90;;;;;;5014474;28;20555;-76
2021/08/08 05:01:47;;;;;;;0.88;0.88;;;17.20;99.90;;;;;;5008859;28;20858;-76
2021/08/08 05:04:13;;;;;;;0.97;0.97;;;17.20;99.90;;;;;;5010801;28;20401;-75
2021/08/08 05:06:39;;;;;;;0.90;0.90;;;17.30;99.90;;;;;;5043823;28;20401;-76
2021/08/08 05:09:04;;;;;;;0.70;0.70;;;17.20;99.90;;;;;;5012537;28;20476;-77
2021/08/08 05:11:31;;;;;;;1.00;1.00;;;17.30;99.90;;;;;;5018098;28;20528;-79
2021/08/08 05:13:58;;;;;;;0.77;0.77;;;17.30;99.90;;;;;;4994061;28;20408;-77
2021/08/08 05:16:24;;;;;;;0.85;0.85;;;17.30;99.90;;;;;;4995356;28;20878;-76
2021/08/08 05:18:49;;;;;;;0.80;0.80;;;17.30;99.90;;;;;;5007426;28;20398;-76
2021/08/08 05:21:15;;;;;;;0.75;0.75;;;17.30;99.90;;;;;;5026729;28;20474;-76
2021/08/08 05:23:41;;;;;;;0.85;0.75;;;17.40;99.90;;;;;;5009937;28;21821;-76
2021/08/08 05:26:06;;;;;;;1.13;0.87;;;17.40;99.90;;;;;;5025930;28;20398;-75
2021/08/08 05:28:32;;;;;;;0.85;0.85;;;17.40;99.90;;;;;;5009559;28;20402;-76
2021/08/08 05:30:58;;;;;;;0.80;0.80;;;17.40;99.90;;;;;;5000880;28;20779;-76
2021/08/08 05:33:24;;;;;;;0.80;0.80;;;17.40;99.90;;;;;;5005258;28;20463;-77
2021/08/08 05:35:51;;;;;;;0.70;0.70;;;17.50;99.90;;;;;;5025250;28;20401;-77
2021/08/08 05:38:17;;;;;;;0.80;0.80;;;17.50;99.90;;;;;;5014674;28;20777;-77
2021/08/08 05:40:43;;;;;;;1.07;1.00;;;17.60;99.90;;;;;;5010547;28;20399;-76
2021/08/08 05:43:08;;;;;;;1.10;1.00;;;17.60;99.90;;;;;;5008912;28;20397;-76
2021/08/08 05:45:34;;;;;;;0.75;0.75;;;17.60;99.90;;;;;;5006176;28;20544;-76
2021/08/08 05:48:01;;;;;;;0.87;0.87;;;17.60;99.90;;;;;;4994655;28;20403;-77
2021/08/08 05:50:30;;;;;;;2.80;1.00;;;17.50;99.90;;;;;;5010061;28;20961;-77
2021/08/08 05:52:57;;;;;;;1.00;0.90;;;17.50;99.90;;;;;;4994572;28;20418;-76
2021/08/08 05:55:23;;;;;;;0.70;0.70;;;17.50;99.90;;;;;;5027792;28;20738;-76
2021/08/08 05:57:49;;;;;;;1.10;1.10;;;17.50;99.90;;;;;;5005257;28;20404;-75
2021/08/08 06:00:16;;;;;;;1.83;0.88;;;17.50;99.90;;;;;;4993560;28;20485;-77
2021/08/08 06:02:43;;;;;;;0.95;0.95;;;17.50;99.90;;;;;;5010993;28;20409;-76
2021/08/08 06:05:12;;;;;;;0.80;0.80;;;17.50;99.90;;;;;;5027766;28;20393;-77
2021/08/08 06:07:38;;;;;;;0.90;0.90;;;17.70;99.90;;;;;;5013585;28;20416;-75
2021/08/08 06:10:05;;;;;;;1.13;1.07;;;17.70;99.90;;;;;;5014417;28;20386;-76
2021/08/08 06:12:30;;;;;;;0.80;0.80;;;17.80;99.90;;;;;;5026689;28;20542;-75
2021/08/08 06:14:56;;;;;;;1.65;1.20;;;17.90;99.90;;;;;;5010805;28;20395;-77
2021/08/08 06:17:22;;;;;;;1.00;1.00;;;18.00;99.90;;;;;;5037480;28;20400;-75
2021/08/08 06:19:47;;;;;;;0.88;0.88;;;18.20;99.90;;;;;;5022903;28;20831;-75
2021/08/08 06:22:14;;;;;;;0.70;0.70;;;18.20;99.90;;;;;;5013399;28;20417;-75
2021/08/08 06:24:41;;;;;;;1.40;0.70;;;18.30;99.90;;;;;;4998147;28;20393;-75
2021/08/08 06:27:08;;;;;;;1.08;0.98;;;18.40;99.90;;;;;;4997105;28;20397;-76
2021/08/08 06:29:36;;;;;;;0.80;0.80;;;18.50;99.90;;;;;;5014501;28;20424;-76
2021/08/08 06:32:03;;;;;;;1.35;1.05;;;18.60;99.90;;;;;;5029936;28;20389;-75
2021/08/08 06:34:29;;;;;;;0.90;0.90;;;18.80;99.90;;;;;;5013544;28;20906;-76
2021/08/08 06:36:54;;;;;;;0.73;0.73;;;18.90;99.90;;;;;;5015682;28;20405;-76
2021/08/08 06:39:20;;;;;;;0.90;0.90;;;19.00;99.90;;;;;;5015079;28;20964;-76
2021/08/08 06:41:46;;;;;;;0.70;0.70;;;19.20;99.90;;;;;;5007370;28;20414;-77
2021/08/08 06:44:15;;;;;;;1.10;1.10;;;19.30;99.90;;;;;;5029048;28;20415;-76
2021/08/08 06:46:41;;;;;;;1.00;1.00;;;19.40;99.90;;;;;;5012564;28;20393;-76
2021/08/08 06:49:08;;;;;;;1.20;0.88;;;19.50;99.90;;;;;;5044845;28;21000;-76
2021/08/08 06:51:34;;;;;;;0.70;0.70;;;19.60;99.90;;;;;;5014172;28;20472;-77
2021/08/08 06:54:00;;;;;;;1.60;1.00;;;19.70;99.90;;;;;;5013592;28;20424;-75
2021/08/08 06:56:26;;;;;;;0.77;0.77;;;19.90;99.90;;;;;;5016499;28;20911;-75
2021/08/08 06:58:52;;;;;;;0.70;0.70;;;19.90;99.90;;;;;;5011225;28;20413;-77
2021/08/08 07:01:18;;;;;;;0.70;0.70;;;20.00;99.90;;;;;;5008883;28;20401;-76
2021/08/08 07:03:43;;;;;;;0.70;0.70;;;20.10;99.90;;;;;;5012133;28;20400;-75
2021/08/08 07:06:09;;;;;;;4.20;0.90;;;20.30;99.90;;;;;;5026595;28;20400;-77
2021/08/08 07:08:35;;;;;;;0.77;0.73;;;20.40;99.90;;;;;;5053917;28;20546;-76
2021/08/08 07:11:01;;;;;;;0.90;0.90;;;20.50;99.90;;;;;;5006142;28;20405;-76
2021/08/08 07:13:27;;;;;;;0.95;0.95;;;20.70;99.90;;;;;;5029991;28;20941;-76
2021/08/08 07:15:53;;;;;;;1.60;0.90;;;20.90;99.90;;;;;;5010182;28;20424;-74
2021/08/08 07:18:19;;;;;;;0.90;0.90;;;21.00;99.90;;;;;;5013030;28;20401;-77
2021/08/08 07:20:44;;;;;;;0.85;0.82;;;21.10;99.90;;;;;;5029627;28;20467;-75
2021/08/08 07:23:10;;;;;;;5.50;0.85;;;21.20;99.90;;;;;;5012442;28;20414;-75
2021/08/08 07:25:36;;;;;;;0.80;0.80;;;21.30;99.90;;;;;;5029310;28;20434;-74
2021/08/08 07:28:02;;;;;;;0.80;0.80;;;21.30;99.90;;;;;;5026817;28;20464;-75
2021/08/08 07:30:28;;;;;;;1.40;0.77;;;21.40;99.90;;;;;;5025374;28;20858;-75
2021/08/08 07:32:54;;;;;;;1.17;1.17;;;21.60;99.90;;;;;;4986847;28;20444;-75
2021/08/08 07:35:21;;;;;;;0.98;0.95;;;21.70;99.90;;;;;;5011581;28;20419;-76
2021/08/08 07:37:48;;;;;;;0.60;0.60;;;21.80;99.90;;;;;;5019887;28;20484;-76
2021/08/08 07:40:14;;;;;;;0.82;0.82;;;21.90;99.90;;;;;;5028952;28;20469;-78
2021/08/08 07:42:49;;;;;;;0.90;0.90;;;22.00;99.90;;;;;;5019898;28;20411;-76
2021/08/08 07:45:17;;;;;;;0.90;0.90;;;22.20;99.90;;;;;;5024058;28;21150;-76
2021/08/08 07:47:43;;;;;;;0.82;0.82;;;22.50;99.90;;;;;;5008525;28;20395;-76
2021/08/08 07:50:10;;;;;;;0.80;0.80;;;22.70;99.90;;;;;;5009953;28;20417;-75
2021/08/08 07:52:36;;;;;;;1.25;0.85;;;22.60;99.90;;;;;;5011211;28;20446;-76
2021/08/08 07:55:06;;;;;;;0.60;0.60;;;22.60;99.90;;;;;;5014879;28;20393;-74
2021/08/08 07:57:33;;;;;;;0.80;0.80;;;22.50;99.90;;;;;;5014526;28;20405;-75
2021/08/08 07:59:58;;;;;;;0.80;0.80;;;22.50;99.90;;;;;;5026931;28;20535;-76
2021/08/08 08:02:24;;;;;;;0.80;0.80;;;22.70;99.90;;;;;;5010676;28;20426;-75
2021/08/08 08:04:52;;;;;;;0.77;0.77;;;22.80;99.90;;;;;;5012705;28;20424;-77
2021/08/08 08:07:18;;;;;;;0.80;0.80;;;22.90;99.90;;;;;;5011106;28;20425;-75
2021/08/08 08:09:44;;;;;;;0.70;0.70;;;23.00;99.90;;;;;;5012144;28;20393;-75
2021/08/08 08:12:10;;;;;;;0.82;0.82;;;23.20;99.90;;;;;;5019822;28;20401;-76
2021/08/08 08:14:37;;;;;;;0.80;0.80;;;23.30;99.90;;;;;;5011106;28;20391;-76
2021/08/08 08:17:03;;;;;;;0.70;0.70;;;23.40;99.90;;;;;;5016372;28;20393;-75
2021/08/08 08:19:30;;;;;;;1.00;0.90;;;23.40;99.90;;;;;;4989956;28;20767;-76
2021/08/08 08:21:56;;;;;;;0.60;0.60;;;23.50;99.90;;;;;;5000861;28;21191;-76
2021/08/08 08:24:22;;;;;;;0.70;0.70;;;23.50;99.90;;;;;;5027501;28;20385;-75
2021/08/08 08:26:49;;;;;;;0.65;0.65;;;23.40;99.90;;;;;;5016498;28;20479;-76
2021/08/08 08:29:15;;;;;;;0.68;0.68;;;23.70;99.90;;;;;;5024459;28;20421;-76
2021/08/08 08:31:41;;;;;;;0.63;0.63;;;23.90;99.90;;;;;;5010557;28;20390;-76
2021/08/08 08:34:07;;;;;;;0.60;0.60;;;24.10;99.90;;;;;;5011728;28;20433;-77
2021/08/08 08:36:35;;;;;;;0.82;0.82;;;24.20;99.90;;;;;;5036310;28;20409;-77
2021/08/08 08:39:02;;;;;;;0.57;0.57;;;24.40;99.90;;;;;;5011906;28;20511;-76
2021/08/08 08:41:30;;;;;;;0.80;0.80;;;24.40;99.90;;;;;;5024652;28;20480;-75
2021/08/08 08:44:00;;;;;;;0.80;0.80;;;24.30;99.90;;;;;;5038044;28;20471;-76
2021/08/08 08:46:26;;;;;;;0.80;0.80;;;24.10;99.90;;;;;;5007580;28;20389;-77
2021/08/08 08:48:53;;;;;;;0.70;0.70;;;24.10;99.90;;;;;;5009957;28;20386;-76
2021/08/08 08:51:20;;;;;;;0.80;0.80;;;24.20;99.90;;;;;;5006748;28;20953;-76
2021/08/08 08:53:47;;;;;;;0.75;0.75;;;24.30;99.90;;;;;;5020962;28;20391;-76
2021/08/08 08:56:14;;;;;;;0.70;0.70;;;24.50;99.90;;;;;;5029395;28;21037;-76
2021/08/08 08:58:40;;;;;;;4.47;0.90;;;24.70;99.90;;;;;;5010279;28;20390;-76
2021/08/08 09:01:06;;;;;;;1.00;1.00;;;24.60;99.90;;;;;;5009969;28;20947;-76
2021/08/08 09:03:32;;;;;;;0.70;0.70;;;24.50;99.90;;;;;;5010393;28;20497;-75
2021/08/08 09:05:57;;;;;;;0.80;0.80;;;24.30;99.90;;;;;;5034584;28;20404;-76
2021/08/08 09:08:23;;;;;;;0.63;0.63;;;24.20;99.90;;;;;;5022764;28;20911;-75
2021/08/08 09:11:03;;;;;;;0.68;0.68;;;24.10;99.90;;;;;;5014674;28;20390;-76
2021/08/08 09:13:31;;;;;;;0.73;0.73;;;24.10;99.90;;;;;;5008036;28;20506;-76
2021/08/08 09:15:57;;;;;;;0.80;0.80;;;24.10;99.90;;;;;;5024134;28;20401;-76
2021/08/08 09:18:23;;;;;;;0.75;0.75;;;24.30;99.90;;;;;;5004537;28;20391;-75
2021/08/08 09:21:08;;;;;;;2.10;0.70;;;24.50;99.90;;;;;;5025020;28;20738;-75
2021/08/08 09:23:35;;;;;;;0.60;0.60;;;24.50;99.90;;;;;;5007694;28;20445;-75
2021/08/08 09:26:02;;;;;;;1.20;0.60;;;24.60;99.90;;;;;;5008605;28;20472;-75
2021/08/08 09:28:33;;;;;;;0.70;0.70;;;24.70;99.90;;;;;;5008719;28;20397;-75
2021/08/08 09:30:59;;;;;;;0.60;0.60;;;25.00;99.90;;;;;;5023132;28;20967;-76
2021/08/08 09:33:25;;;;;;;0.70;0.70;;;25.20;99.90;;;;;;5033277;28;20401;-76
2021/08/08 09:35:53;;;;;;;1.00;0.80;;;25.50;99.90;;;;;;5025200;28;20394;-75
2021/08/08 09:38:20;;;;;;;0.60;0.60;;;25.70;99.90;;;;;;5027263;28;20459;-75
2021/08/08 09:40:57;;;;;;;0.55;0.55;;;26.00;99.90;;;;;;5003323;28;20900;-76
2021/08/08 09:43:27;;;;;;;0.63;0.63;;;26.20;99.90;;;;;;5009077;28;20418;-75
2021/08/08 09:45:53;;;;;;;0.70;0.70;;;26.30;99.90;;;;;;5011932;28;20454;-75
2021/08/08 09:48:19;;;;;;;1.42;1.23;;;26.60;99.90;;;;;;5019466;28;20472;-76
2021/08/08 09:50:45;;;;;;;0.87;0.87;;;26.80;99.90;;;;;;5009276;28;20482;-74
2021/08/08 09:53:20;;;;;;;0.73;0.73;;;26.90;99.90;;;;;;5038835;28;20412;-76
2021/08/08 09:55:46;;;;;;;0.63;0.63;;;26.90;99.90;;;;;;5042935;28;20472;-76
2021/08/08 09:58:22;;;;;;;0.70;0.70;;;27.30;99.90;;;;;;5010457;28;20490;-76
2021/08/08 10:00:48;;;;;;;0.80;0.70;;;27.70;99.90;;;;;;5045208;28;20927;-76
2021/08/08 10:03:15;;;;;;;0.60;0.60;;;28.00;99.90;;;;;;5048072;28;20409;-78
2021/08/08 10:05:42;;;;;;;0.55;0.55;;;27.80;99.90;;;;;;5026347;28;20396;-76
2021/08/08 10:08:11;;;;;;;0.50;0.50;;;27.60;99.90;;;;;;5024368;28;20407;-76
2021/08/08 10:10:38;;;;;;;0.70;0.70;;;27.60;99.90;;;;;;5026314;28;20899;-75
2021/08/08 10:13:22;;;;;;;0.60;0.60;;;27.30;99.90;;;;;;4992845;28;20801;-75
2021/08/08 10:15:50;;;;;;;0.75;0.70;;;27.00;99.90;;;;;;5053766;28;20412;-76
2021/08/08 10:18:16;;;;;;;1.00;0.90;;;27.00;99.90;;;;;;5032669;28;20405;-75
2021/08/08 10:20:42;;;;;;;0.70;0.70;;;27.20;99.90;;;;;;5003584;28;20996;-76
2021/08/08 10:23:12;;;;;;;0.68;0.68;;;27.20;99.90;;;;;;5033875;28;20405;-77
2021/08/08 10:25:38;;;;;;;0.88;0.88;;;27.20;99.90;;;;;;5004306;28;21353;-76
2021/08/08 10:28:08;;;;;;;0.85;0.85;;;27.50;99.90;;;;;;5022217;28;20393;-76
2021/08/08 10:30:34;;;;;;;0.60;0.60;;;27.70;99.90;;;;;;5010576;28;20402;-76
2021/08/08 10:33:04;;;;;;;1.63;0.83;;;27.60;99.90;;;;;;4993045;28;20460;-76
2021/08/08 10:35:39;;;;;;;0.77;0.77;;;27.60;99.90;;;;;;5011812;28;20399;-77
2021/08/08 10:38:04;;;;;;;0.65;0.65;;;27.80;99.90;;;;;;5010191;28;20398;-77
2021/08/08 10:40:32;;;;;;;0.73;0.57;;;27.50;99.90;;;;;;5025281;28;20397;-76
2021/08/08 10:42:58;;;;;;;0.50;0.50;;;27.20;99.90;;;;;;5011673;28;20411;-77
2021/08/08 10:45:26;;;;;;;0.60;0.60;;;27.00;99.90;;;;;;5025727;28;20393;-76
2021/08/08 10:48:04;;;;;;;0.60;0.60;;;26.80;99.90;;;;;;5006546;28;20487;-76
2021/08/08 10:50:37;;;;;;;0.75;0.75;;;26.90;99.90;;;;;;5002794;28;20726;-76
2021/08/08 10:53:02;;;;;;;0.60;0.60;;;27.10;99.90;;;;;;5043059;28;20932;-75
2021/08/08 10:55:30;;;;;;;0.60;0.60;;;27.30;99.90;;;;;;5038036;28;20401;-76
2021/08/08 10:57:56;;;;;;;0.68;0.60;;;27.20;99.90;;;;;;5018900;28;20394;-75
2021/08/08 11:00:32;;;;;;;0.70;0.70;;;27.00;99.90;;;;;;5024091;28;20409;-77
2021/08/08 11:03:09;;;;;;;1.60;1.50;;;26.70;99.90;;;;;;5030849;28;20451;-76
2021/08/08 11:05:34;;;;;;;1.67;1.10;;;26.80;99.90;;;;;;5008632;28;20387;-79
2021/08/08 11:08:00;;;;;;;0.70;0.70;;;27.10;99.90;;;;;;4994937;28;20412;-78
2021/08/08 11:10:27;;;;;;;0.60;0.60;;;27.30;99.90;;;;;;5029703;28;20916;-78
2021/08/08 11:12:53;;;;;;;0.50;0.50;;;27.30;99.90;;;;;;5033852;28;20486;-76
2021/08/08 11:15:38;;;;;;;0.60;0.60;;;27.20;99.90;;;;;;4985890;28;20622;-77
2021/08/08 11:18:13;;;;;;;0.70;0.70;;;27.00;99.90;;;;;;4993812;28;20406;-77
2021/08/08 11:20:38;;;;;;;0.60;0.60;;;27.00;99.90;;;;;;5026937;28;20949;-77
2021/08/08 11:23:04;;;;;;;0.98;0.98;;;27.40;99.90;;;;;;5019637;28;20409;-76
2021/08/08 11:25:40;;;;;;;1.80;1.17;;;27.70;99.90;;;;;;5026486;28;20396;-76
2021/08/08 11:28:06;;;;;;;0.70;0.70;;;27.70;99.80;;;;;;5009411;28;20988;-76
2021/08/08 11:30:43;;;;;;;1.33;0.80;;;27.60;99.90;;;;;;5012568;28;20417;-77
2021/08/08 11:33:09;;;;;;;2.30;0.80;;;27.60;99.90;;;;;;5038271;28;20417;-76
2021/08/08 11:35:35;;;;;;;1.10;0.70;;;27.40;99.90;;;;;;5026430;28;20404;-77
2021/08/08 11:38:00;;;;;;;0.70;0.63;;;27.50;99.90;;;;;;5032049;28;20405;-77
2021/08/08 11:40:30;;;;;;;0.65;0.65;;;27.60;99.90;;;;;;5010003;28;20393;-78
2021/08/08 11:42:57;;;;;;;0.60;0.60;;;27.70;99.90;;;;;;5011037;28;20413;-76
2021/08/08 11:45:37;;;;;;;0.53;0.53;;;27.70;99.90;;;;;;5020197;28;20842;-76
2021/08/08 11:48:05;;;;;;;0.70;0.70;;;27.70;99.90;;;;;;5002444;28;20416;-77
2021/08/08 11:50:31;;;;;;;0.65;0.65;;;27.60;99.90;;;;;;5009419;28;20834;-77
2021/08/08 11:52:57;;;;;;;0.50;0.50;;;27.60;99.90;;;;;;5016428;28;20407;-77
2021/08/08 11:55:23;;;;;;;0.70;0.70;;;27.60;99.90;;;;;;5023127;28;20886;-76
2021/08/08 11:57:49;;;;;;;0.73;0.73;;;27.50;99.90;;;;;;5008940;28;20394;-76
2021/08/08 12:00:15;;;;;;;0.60;0.60;;;27.20;99.90;;;;;;5013798;28;20401;-77
2021/08/08 12:02:41;;;;;;;0.63;0.63;;;27.00;99.90;;;;;;5008707;28;20442;-77
2021/08/08 12:05:07;;;;;;;0.60;0.60;;;27.00;99.90;;;;;;5035072;28;20480;-75
2021/08/08 12:07:32;;;;;;;0.52;0.52;;;27.00;99.90;;;;;;5010078;28;21095;-76
2021/08/08 12:09:59;;;;;;;0.53;0.53;;;27.50;99.90;;;;;;5013473;28;20455;-76
2021/08/08 12:12:35;;;;;;;0.50;0.50;;;27.80;99.90;;;;;;5025961;28;20474;-77
2021/08/08 12:15:01;;;;;;;0.57;0.57;;;27.70;97.40;;;;;;5028066;28;20905;-76
2021/08/08 12:17:27;;;;;;;0.67;0.67;;;27.40;99.70;;;;;;5027899;28;20396;-76
2021/08/08 12:20:00;;;;;;;0.60;0.60;;;27.30;99.90;;;;;;5033819;28;20403;-76
2021/08/08 12:22:29;;;;;;;0.60;0.60;;;27.10;98.90;;;;;;5028650;28;20401;-77
2021/08/08 12:25:16;;;;;;;0.68;0.68;;;27.00;99.90;;;;;;5021979;28;20397;-76
2021/08/08 12:27:42;;;;;;;0.60;0.60;;;27.00;98.90;;;;;;5033396;28;20459;-76
2021/08/08 12:30:11;;;;;;;0.90;0.80;;;26.90;99.90;;;;;;5026523;28;20793;-76
2021/08/08 12:32:40;;;;;;;0.65;0.65;;;27.00;98.70;;;;;;5023654;28;20417;-77
2021/08/08 12:35:06;;;;;;;0.60;0.60;;;27.60;99.90;;;;;;5025125;28;20476;-77
2021/08/08 12:37:32;;;;;;;0.70;0.70;;;28.10;99.90;;;;;;5033075;28;20400;-76
2021/08/08 12:40:16;;;;;;;0.50;0.50;;;28.30;99.90;;;;;;5025292;28;20913;-77
2021/08/08 12:42:42;;;;;;;0.60;0.60;;;28.10;96.60;;;;;;5050041;28;20434;-76
2021/08/08 12:45:13;;;;;;;0.50;0.50;;;27.60;98.20;;;;;;5010647;28;20401;-77
2021/08/08 12:47:40;;;;;;;0.70;0.70;;;27.60;98.00;;;;;;5003795;28;20509;-77
2021/08/08 12:50:12;;;;;;;0.53;0.53;;;27.40;99.70;;;;;;5025844;28;20416;-77